KRZT

Ross County Airport

Chillicothe, Ohio, USA
METAR KRZT 100615Z AUTO 00000KT 10SM CLR M06/M08 A3020 RMK AO2
Observed Flight Rules
Dec-10 @ 06:15 UTC (13 minutes ago) Visual Flight Rules
Visibility Clouds
10 miles
  • Clear skies
Temperatures Readings
Current -6°C / 21°F
Dewpoint -8°C / 18°F
Humidity 86%
Altimeter 30.2" Hg
Pressure 1023 hPa
Elevation 221
METAR KRZT 100615Z AUTO 00000KT 10SM CLR M06/M08 A3020 RMK AO2
Observed Flight Rules
Dec-10 @ 06:15 UTC
(13 minutes ago)
VFR
Clouds
  • Clear skies
Temperature Dewpoint
-6°C / 21°F -8°C / 18°F
Humidity Altimeter Pressure
86% 30.2" Hg 1023 hPa